< < Back
Terminal Aerodrome Forecast


Current Version              Previous Versions:   1  2  3  4  5  6  7  8  9  

Terminal Aerodrome Forecast

855
FTUS42 KJAX 241100
TAFSSI
TAF
KSSI 241137Z 2412/2512 34003KT P6SM SCT250
     FM241400 05007KT P6SM FEW030 SCT200
     FM242300 02003KT P6SM FEW250=

Latest METAR

020
SAUS70 KWBC 241200 RRI
MTRSSI
METAR KSSI 241153Z AUTO 32005KT 10SM CLR 11/09 A3003 RMK AO2 SLP169
T01110094 10111 20100 50005


USA.gov is the U.S. government's official web portal to all federal, state and local government web resources and services.